Time;durP1;ratioP1;P1;durP2;ratioP2;P2;SDS_P1;SDS_P2;PMS_P1;PMS_P2;Temp;Humidity;BMP_temperature;BMP_pressure;BME280_temperature;BME280_humidity;BME280_pressure;Samples;Min_cycle;Max_cycle;Signal;HPM_P1;HPM_P2
2021/05/28 00:00:06;;;;;;;30.15;11.55;;;9.10;99.90;;;;;;5003380;28;20022;-75
2021/05/28 00:02:31;;;;;;;36.97;12.23;;;9.20;99.90;;;;;;4999542;28;20088;-73
2021/05/28 00:04:57;;;;;;;19.50;10.73;;;9.00;99.90;;;;;;4996618;28;20018;-75
2021/05/28 00:07:22;;;;;;;21.10;11.45;;;9.00;99.90;;;;;;5007271;28;20483;-74
2021/05/28 00:09:48;;;;;;;26.30;11.68;;;9.00;99.90;;;;;;5003197;28;20033;-75
2021/05/28 00:12:14;;;;;;;27.38;11.88;;;9.00;99.90;;;;;;5005656;28;20036;-74
2021/05/28 00:14:40;;;;;;;35.10;12.98;;;8.90;99.90;;;;;;5003962;28;20014;-75
2021/05/28 00:17:06;;;;;;;29.55;14.20;;;8.90;99.90;;;;;;4999704;28;20105;-73
2021/05/28 00:19:31;;;;;;;26.10;12.48;;;8.90;99.90;;;;;;5000404;28;20021;-75
2021/05/28 00:21:57;;;;;;;23.77;13.27;;;8.80;99.90;;;;;;4997240;28;20026;-75
2021/05/28 00:24:23;;;;;;;24.08;11.88;;;8.90;99.90;;;;;;4996879;28;20026;-74
2021/05/28 00:26:48;;;;;;;29.83;12.73;;;8.90;99.90;;;;;;5002469;28;20022;-75
2021/05/28 00:29:14;;;;;;;41.63;14.90;;;8.90;99.90;;;;;;4998961;28;20293;-75
2021/05/28 00:31:40;;;;;;;33.95;14.35;;;8.80;99.90;;;;;;5005721;28;20010;-75
2021/05/28 00:34:06;;;;;;;33.20;15.07;;;8.80;99.90;;;;;;5007349;28;20125;-74
2021/05/28 00:36:31;;;;;;;34.58;14.27;;;8.80;99.90;;;;;;5013199;28;20021;-75
2021/05/28 00:38:57;;;;;;;39.30;14.00;;;8.70;99.90;;;;;;4999528;28;20391;-74
2021/05/28 00:41:23;;;;;;;35.30;15.05;;;8.70;99.90;;;;;;5001951;28;20383;-75
2021/05/28 00:43:48;;;;;;;28.20;13.48;;;8.80;99.90;;;;;;4996432;28;20037;-76
2021/05/28 00:46:14;;;;;;;30.08;13.80;;;8.80;99.90;;;;;;5004784;28;20018;-75
2021/05/28 00:48:39;;;;;;;36.70;15.38;;;8.90;99.90;;;;;;5012389;28;20029;-75
2021/05/28 00:51:07;;;;;;;32.95;14.77;;;8.80;99.90;;;;;;5012183;28;20101;-75
2021/05/28 00:53:33;;;;;;;32.63;14.63;;;8.80;99.90;;;;;;5006209;28;20019;-73
2021/05/28 00:56:00;;;;;;;32.20;14.63;;;8.70;99.90;;;;;;5000147;28;20028;-74
2021/05/28 00:58:27;;;;;;;30.38;15.15;;;8.70;99.90;;;;;;5020729;28;20030;-79
2021/05/28 01:00:53;;;;;;;30.52;15.50;;;8.70;99.90;;;;;;5025241;28;20014;-76
2021/05/28 01:03:19;;;;;;;29.23;15.07;;;8.60;99.90;;;;;;5001304;28;20034;-76
2021/05/28 01:05:45;;;;;;;29.15;14.15;;;8.60;99.90;;;;;;5008079;28;20033;-75
2021/05/28 01:08:11;;;;;;;39.88;16.08;;;8.60;99.90;;;;;;5020916;28;20010;-74
2021/05/28 01:10:42;;;;;;;37.05;15.60;;;8.50;99.90;;;;;;5001615;28;20342;-75
2021/05/28 01:13:10;;;;;;;35.10;15.07;;;8.50;99.90;;;;;;5027974;28;20085;-75
2021/05/28 01:15:36;;;;;;;33.35;15.43;;;8.50;99.90;;;;;;5029762;28;20074;-75
2021/05/28 01:18:03;;;;;;;34.30;16.67;;;8.50;99.90;;;;;;5024376;28;20026;-75
2021/05/28 01:20:29;;;;;;;35.22;16.65;;;8.50;99.90;;;;;;5010163;28;20044;-74
2021/05/28 01:22:58;;;;;;;33.38;16.70;;;8.40;99.90;;;;;;5003775;28;20104;-75
2021/05/28 01:25:24;;;;;;;35.80;16.90;;;8.40;99.90;;;;;;5002138;28;20025;-72
2021/05/28 01:27:50;;;;;;;38.95;18.25;;;8.40;99.90;;;;;;5004624;28;20015;-76
2021/05/28 01:30:16;;;;;;;32.58;17.38;;;8.40;99.90;;;;;;5010392;28;20258;-76
2021/05/28 01:32:44;;;;;;;37.92;18.05;;;8.40;99.90;;;;;;4995282;28;21277;-73
2021/05/28 01:35:12;;;;;;;39.47;17.45;;;8.30;99.90;;;;;;5013736;28;20009;-76
2021/05/28 01:37:37;;;;;;;38.55;18.10;;;8.40;99.90;;;;;;5013046;28;20040;-75
2021/05/28 01:40:04;;;;;;;32.80;16.23;;;8.30;99.90;;;;;;5016929;28;20046;-76
2021/05/28 01:42:30;;;;;;;34.28;16.98;;;8.30;99.90;;;;;;5015676;28;20091;-76
2021/05/28 01:44:58;;;;;;;38.08;17.30;;;8.30;99.90;;;;;;5009891;28;20104;-74
2021/05/28 01:47:26;;;;;;;42.53;18.90;;;8.30;99.90;;;;;;5013071;28;20021;-73
2021/05/28 01:49:52;;;;;;;34.13;17.27;;;8.20;99.90;;;;;;5009800;28;20134;-76
2021/05/28 01:52:19;;;;;;;34.45;15.80;;;8.20;99.90;;;;;;5010129;28;20014;-76
2021/05/28 01:54:45;;;;;;;32.03;17.77;;;8.20;99.90;;;;;;5010000;28;20032;-73
2021/05/28 01:57:12;;;;;;;42.63;18.25;;;8.30;99.90;;;;;;5009180;28;20034;-74
2021/05/28 01:59:39;;;;;;;28.88;16.95;;;8.20;99.90;;;;;;5004745;28;20010;-75
2021/05/28 02:02:05;;;;;;;32.28;17.40;;;8.20;99.90;;;;;;5009782;28;20118;-75
2021/05/28 02:04:31;;;;;;;34.92;19.17;;;8.10;99.90;;;;;;4996799;28;20506;-76
2021/05/28 02:06:57;;;;;;;38.88;19.65;;;8.00;99.90;;;;;;4997034;28;20014;-77
2021/05/28 02:09:23;;;;;;;40.25;19.40;;;8.00;99.90;;;;;;5002603;28;20089;-74
2021/05/28 02:11:49;;;;;;;33.60;18.88;;;8.10;99.90;;;;;;5006398;28;20065;-75
2021/05/28 02:14:15;;;;;;;37.38;18.90;;;8.00;99.90;;;;;;5010518;28;20437;-76
2021/05/28 02:16:41;;;;;;;35.42;19.17;;;8.00;99.90;;;;;;4997829;28;20050;-75
2021/05/28 02:19:08;;;;;;;46.38;18.88;;;8.00;99.90;;;;;;4997603;28;20409;-75
2021/05/28 02:21:34;;;;;;;41.53;20.45;;;8.00;99.90;;;;;;5000618;28;20392;-76
2021/05/28 02:24:00;;;;;;;38.63;20.10;;;7.90;99.90;;;;;;4993939;28;20034;-75
2021/05/28 02:26:26;;;;;;;39.35;19.58;;;7.90;99.90;;;;;;4999712;28;20026;-76
2021/05/28 02:28:53;;;;;;;34.60;17.88;;;8.00;99.90;;;;;;5004241;28;20018;-75
2021/05/28 02:31:18;;;;;;;38.80;19.23;;;8.00;99.90;;;;;;5000138;28;20022;-75
2021/05/28 02:33:44;;;;;;;33.88;19.80;;;7.90;99.90;;;;;;5002106;28;20226;-74
2021/05/28 02:36:17;;;;;;;37.05;19.40;;;7.90;99.90;;;;;;5006199;28;20064;-77
2021/05/28 02:38:44;;;;;;;33.85;18.40;;;7.90;99.90;;;;;;5000994;28;20075;-73
2021/05/28 02:41:10;;;;;;;31.40;17.75;;;8.00;99.90;;;;;;4998541;28;20054;-74
2021/05/28 02:43:36;;;;;;;35.55;19.10;;;7.90;99.90;;;;;;4992357;28;20060;-74
2021/05/28 02:46:02;;;;;;;36.47;20.17;;;8.00;99.90;;;;;;5003348;28;20010;-75
2021/05/28 02:48:28;;;;;;;34.05;19.75;;;7.90;99.90;;;;;;4992783;28;20079;-72
2021/05/28 02:50:54;;;;;;;41.80;19.80;;;7.80;99.90;;;;;;4995295;28;20029;-73
2021/05/28 02:53:19;;;;;;;39.35;20.90;;;7.80;99.90;;;;;;5003226;28;20023;-75
2021/05/28 02:55:46;;;;;;;42.03;20.63;;;7.70;99.90;;;;;;5007608;28;20432;-75
2021/05/28 02:58:14;;;;;;;50.00;21.60;;;7.70;99.90;;;;;;4998489;28;20032;-75
2021/05/28 03:00:40;;;;;;;35.58;20.13;;;7.60;99.90;;;;;;4995965;28;20030;-75
2021/05/28 03:03:05;;;;;;;51.22;22.55;;;7.70;99.90;;;;;;5004384;28;20084;-74
2021/05/28 03:05:37;;;;;;;35.13;20.00;;;7.80;99.90;;;;;;5015117;28;20061;-75
2021/05/28 03:08:03;;;;;;;39.45;19.88;;;7.80;99.90;;;;;;5017615;28;20026;-74
2021/05/28 03:10:28;;;;;;;36.60;18.25;;;7.70;99.90;;;;;;5020449;28;20030;-76
2021/05/28 03:12:55;;;;;;;44.05;20.75;;;7.80;99.90;;;;;;5022845;28;20022;-76
2021/05/28 03:15:21;;;;;;;35.33;19.35;;;7.80;99.90;;;;;;5027483;28;20268;-77
2021/05/28 03:17:47;;;;;;;35.30;20.80;;;7.80;99.90;;;;;;5023890;28;20172;-76
2021/05/28 03:20:20;;;;;;;37.10;20.67;;;7.80;99.90;;;;;;5008871;28;20041;-76
2021/05/28 03:22:46;;;;;;;41.15;20.38;;;7.80;99.90;;;;;;4999790;28;20392;-75
2021/05/28 03:25:13;;;;;;;44.28;20.20;;;7.70;99.90;;;;;;5001697;28;20034;-76
2021/05/28 03:27:40;;;;;;;37.38;20.90;;;7.70;99.90;;;;;;5007208;28;20037;-76
2021/05/28 03:30:09;;;;;;;41.22;19.42;;;7.70;99.90;;;;;;5005373;28;20018;-76
2021/05/28 03:32:35;;;;;;;38.50;20.20;;;7.70;99.90;;;;;;4990469;28;20026;-77
2021/05/28 03:35:01;;;;;;;35.78;19.58;;;7.70;99.90;;;;;;5000132;28;20038;-76
2021/05/28 03:37:26;;;;;;;42.35;19.92;;;7.70;99.90;;;;;;4994948;28;20014;-75
2021/05/28 03:39:52;;;;;;;40.75;19.83;;;7.70;99.90;;;;;;4994933;28;20033;-75
2021/05/28 03:42:19;;;;;;;48.33;20.27;;;7.70;99.90;;;;;;5000188;28;20045;-75
2021/05/28 03:44:46;;;;;;;36.28;19.35;;;7.70;99.90;;;;;;4987306;28;20069;-75
2021/05/28 03:47:12;;;;;;;38.03;19.80;;;7.70;99.90;;;;;;5004083;28;20057;-74
2021/05/28 03:49:39;;;;;;;44.28;21.13;;;7.80;99.90;;;;;;4995769;28;20519;-76
2021/05/28 03:52:05;;;;;;;39.17;19.23;;;7.80;99.90;;;;;;5003717;28;20014;-75
2021/05/28 03:54:32;;;;;;;39.75;19.25;;;7.90;99.90;;;;;;5003985;28;20026;-76
2021/05/28 03:56:58;;;;;;;37.83;18.98;;;7.80;99.90;;;;;;5000144;28;20029;-75
2021/05/28 03:59:26;;;;;;;37.05;18.30;;;7.80;99.90;;;;;;4999510;28;20026;-75
2021/05/28 04:01:51;;;;;;;39.05;18.35;;;7.80;99.90;;;;;;5001066;28;20025;-74
2021/05/28 04:04:18;;;;;;;37.13;18.25;;;7.90;99.90;;;;;;5009676;28;20030;-75
2021/05/28 04:06:44;;;;;;;29.35;18.35;;;7.90;99.90;;;;;;5006659;28;20058;-74
2021/05/28 04:09:24;;;;;;;28.90;16.42;;;7.90;99.90;;;;;;5009565;28;20030;-76
2021/05/28 04:11:51;;;;;;;39.75;18.05;;;7.90;99.90;;;;;;5024169;28;20117;-74
2021/05/28 04:14:28;;;;;;;31.98;19.17;;;7.90;99.90;;;;;;5029151;28;20026;-74
2021/05/28 04:16:54;;;;;;;33.03;18.85;;;7.90;99.90;;;;;;5024877;28;20049;-74
2021/05/28 04:19:20;;;;;;;27.77;17.33;;;7.90;99.90;;;;;;5013445;28;20050;-74
2021/05/28 04:21:45;;;;;;;31.27;17.70;;;7.90;99.90;;;;;;5026555;28;20033;-76
2021/05/28 04:24:11;;;;;;;32.70;17.75;;;7.90;99.90;;;;;;5022626;28;20031;-75
2021/05/28 04:26:43;;;;;;;35.35;18.08;;;8.00;99.90;;;;;;5019718;28;20022;-76
2021/05/28 04:29:08;;;;;;;30.40;18.80;;;8.00;99.90;;;;;;5032791;28;20014;-77
2021/05/28 04:31:35;;;;;;;34.17;19.52;;;8.10;99.90;;;;;;5025214;28;20026;-78
2021/05/28 04:34:01;;;;;;;51.03;23.20;;;8.10;99.90;;;;;;5025520;28;20042;-76
2021/05/28 04:36:27;;;;;;;52.45;24.88;;;8.10;99.90;;;;;;5024276;28;20080;-76
2021/05/28 04:38:56;;;;;;;52.17;25.15;;;8.00;99.90;;;;;;5018641;28;20026;-78
2021/05/28 04:41:21;;;;;;;59.03;27.67;;;7.90;99.90;;;;;;5022612;28;20014;-77
2021/05/28 04:43:49;;;;;;;54.58;26.60;;;7.80;99.90;;;;;;5011010;28;20094;-76
2021/05/28 04:46:14;;;;;;;129.50;30.13;;;7.90;99.90;;;;;;5009892;28;20034;-77
2021/05/28 04:48:40;;;;;;;123.13;29.23;;;7.90;99.90;;;;;;5011785;28;20018;-75
2021/05/28 04:51:05;;;;;;;126.88;29.08;;;7.80;99.90;;;;;;5010706;28;20097;-75
2021/05/28 04:53:31;;;;;;;131.55;31.17;;;7.70;99.90;;;;;;5002101;28;20026;-77
2021/05/28 04:55:57;;;;;;;128.57;30.10;;;7.60;99.90;;;;;;4998344;28;20101;-75
2021/05/28 04:58:22;;;;;;;72.70;27.45;;;7.50;99.90;;;;;;4994226;28;20482;-76
2021/05/28 05:00:49;;;;;;;74.22;29.17;;;7.50;99.90;;;;;;5002118;28;20470;-76
2021/05/28 05:03:16;;;;;;;63.97;26.73;;;7.70;99.90;;;;;;5000027;28;20038;-75
2021/05/28 05:05:43;;;;;;;55.15;25.83;;;7.90;99.90;;;;;;4994733;28;20019;-75
2021/05/28 05:08:09;;;;;;;99.55;28.08;;;8.00;99.90;;;;;;5005734;28;20646;-76
2021/05/28 05:10:36;;;;;;;64.43;25.35;;;8.20;99.90;;;;;;4995053;28;20022;-76
2021/05/28 05:13:12;;;;;;;65.55;27.63;;;8.30;99.90;;;;;;5002947;28;20033;-74
2021/05/28 05:15:38;;;;;;;55.17;25.83;;;8.20;99.90;;;;;;5021850;28;20149;-76
2021/05/28 05:18:05;;;;;;;85.68;27.77;;;8.10;99.90;;;;;;5004572;28;20050;-75
2021/05/28 05:20:31;;;;;;;72.10;26.20;;;8.20;99.90;;;;;;5003091;28;20131;-76
2021/05/28 05:22:56;;;;;;;64.03;26.60;;;8.30;99.90;;;;;;5010765;28;20069;-75
2021/05/28 05:25:22;;;;;;;74.43;27.13;;;8.30;99.90;;;;;;5006449;28;20018;-77
2021/05/28 05:27:48;;;;;;;49.10;24.27;;;8.40;99.90;;;;;;5009061;28;20025;-75
2021/05/28 05:30:18;;;;;;;45.40;26.00;;;8.50;99.90;;;;;;5015969;28;20030;-76
2021/05/28 05:32:45;;;;;;;48.47;26.17;;;8.50;99.90;;;;;;5008188;28;20063;-76
2021/05/28 05:35:21;;;;;;;53.30;26.08;;;8.60;99.90;;;;;;5009054;28;20032;-75
2021/05/28 05:38:00;;;;;;;54.00;24.95;;;8.70;99.90;;;;;;5017070;28;20076;-79
2021/05/28 05:40:26;;;;;;;41.05;23.60;;;8.60;99.90;;;;;;5008844;28;20491;-76
2021/05/28 05:42:52;;;;;;;41.38;23.05;;;8.70;99.90;;;;;;5005281;28;20109;-75
2021/05/28 05:45:18;;;;;;;40.47;22.27;;;9.00;99.90;;;;;;5010391;28;20046;-76
2021/05/28 05:47:44;;;;;;;38.17;20.45;;;9.00;99.90;;;;;;5010472;28;20038;-75
2021/05/28 05:50:11;;;;;;;38.65;22.00;;;9.30;99.90;;;;;;5006407;28;20026;-76
2021/05/28 05:52:37;;;;;;;36.67;21.15;;;9.50;99.90;;;;;;5013795;28;20104;-76
2021/05/28 05:55:04;;;;;;;35.42;20.08;;;9.50;99.90;;;;;;5009614;28;20045;-74
2021/05/28 05:57:31;;;;;;;34.88;19.20;;;9.50;99.90;;;;;;4999640;28;20065;-76
2021/05/28 05:59:58;;;;;;;34.97;16.77;;;9.60;99.90;;;;;;5006993;28;20025;-77
2021/05/28 06:02:23;;;;;;;22.67;15.60;;;9.70;99.90;;;;;;5016847;28;20033;-77
2021/05/28 06:04:49;;;;;;;24.40;13.77;;;9.60;99.90;;;;;;5009134;28;20526;-77
2021/05/28 06:07:15;;;;;;;17.08;11.68;;;9.80;99.90;;;;;;5001155;28;20049;-76
2021/05/28 06:09:40;;;;;;;21.67;11.68;;;10.10;99.90;;;;;;5012207;28;20014;-76
2021/05/28 06:12:07;;;;;;;23.65;12.25;;;10.20;99.90;;;;;;5018823;28;20033;-76
2021/05/28 06:14:35;;;;;;;23.63;12.88;;;10.20;99.90;;;;;;5013437;28;20110;-77
2021/05/28 06:17:00;;;;;;;22.52;12.25;;;10.10;99.90;;;;;;5011589;28;20018;-76
2021/05/28 06:19:26;;;;;;;20.88;13.10;;;10.10;99.90;;;;;;5013323;28;20020;-78
2021/05/28 06:21:52;;;;;;;23.88;13.32;;;10.40;99.90;;;;;;5031332;28;20353;-76
2021/05/28 06:24:23;;;;;;;25.75;12.05;;;10.70;99.90;;;;;;5017879;28;20017;-77
2021/05/28 06:26:49;;;;;;;23.33;12.87;;;10.70;99.90;;;;;;4998777;28;20026;-75
2021/05/28 06:29:17;;;;;;;16.73;12.73;;;10.60;99.90;;;;;;5002926;28;20085;-77
2021/05/28 06:31:45;;;;;;;23.48;12.10;;;10.60;99.90;;;;;;5009338;28;20118;-75
2021/05/28 06:34:11;;;;;;;16.83;11.48;;;10.70;99.90;;;;;;5007868;28;20018;-76
2021/05/28 06:36:39;;;;;;;20.27;12.00;;;11.00;99.90;;;;;;5005472;28;20061;-75
2021/05/28 06:39:07;;;;;;;18.83;11.15;;;11.30;99.90;;;;;;5000737;28;20030;-75
2021/05/28 06:41:33;;;;;;;16.60;10.77;;;11.50;99.90;;;;;;5002056;28;20053;-75
2021/05/28 06:43:58;;;;;;;15.88;9.65;;;11.60;99.90;;;;;;5009991;28;20026;-76
2021/05/28 06:46:24;;;;;;;14.52;9.43;;;11.80;99.90;;;;;;4994588;28;20073;-76
2021/05/28 06:48:52;;;;;;;17.58;9.70;;;12.10;99.90;;;;;;5008012;28;20037;-76
2021/05/28 06:51:17;;;;;;;15.00;8.80;;;12.30;99.90;;;;;;4995740;28;20018;-77
2021/05/28 06:53:43;;;;;;;21.67;9.40;;;12.30;99.90;;;;;;5010010;28;20048;-77
2021/05/28 06:56:09;;;;;;;14.55;9.43;;;11.90;99.90;;;;;;5002131;28;20026;-76
2021/05/28 06:58:34;;;;;;;13.80;8.25;;;11.60;99.90;;;;;;5003894;28;20034;-75
2021/05/28 07:01:02;;;;;;;16.23;9.05;;;11.50;99.90;;;;;;4999174;28;20022;-78
2021/05/28 07:03:28;;;;;;;16.67;9.13;;;11.50;99.90;;;;;;5003683;28;20032;-77
2021/05/28 07:05:53;;;;;;;16.38;9.02;;;11.70;99.90;;;;;;5013417;28;20522;-77
2021/05/28 07:08:19;;;;;;;16.02;9.02;;;11.70;99.90;;;;;;5014111;28;20041;-76
2021/05/28 07:10:45;;;;;;;12.70;9.23;;;11.70;99.90;;;;;;5014087;28;20048;-77
2021/05/28 07:13:10;;;;;;;16.42;9.13;;;11.90;99.90;;;;;;5012772;28;20033;-76
2021/05/28 07:15:38;;;;;;;16.83;8.98;;;12.10;99.90;;;;;;5012510;28;20086;-74
2021/05/28 07:18:05;;;;;;;15.30;9.20;;;12.30;99.90;;;;;;5005950;28;20033;-74
2021/05/28 07:20:31;;;;;;;18.83;8.88;;;12.80;99.90;;;;;;4997415;28;20023;-74
2021/05/28 07:22:57;;;;;;;15.15;7.95;;;12.90;99.90;;;;;;5006923;28;20525;-75
2021/05/28 07:25:22;;;;;;;16.25;8.02;;;12.50;99.90;;;;;;5013078;28;20021;-74
2021/05/28 07:27:48;;;;;;;13.25;7.97;;;12.70;99.90;;;;;;5013796;28;20018;-77
2021/05/28 07:30:15;;;;;;;12.27;7.95;;;13.00;99.90;;;;;;5012458;28;20017;-75
2021/05/28 07:32:41;;;;;;;13.02;7.40;;;13.10;99.90;;;;;;5004680;28;20029;-74
2021/05/28 07:35:09;;;;;;;12.98;7.30;;;12.90;99.90;;;;;;5014790;28;20022;-75
2021/05/28 07:37:35;;;;;;;15.07;8.02;;;12.60;99.90;;;;;;5014587;28;20014;-76
2021/05/28 07:40:02;;;;;;;12.32;7.75;;;12.10;99.90;;;;;;5027083;28;20077;-77
2021/05/28 07:42:36;;;;;;;15.68;8.15;;;12.50;99.90;;;;;;5022212;28;20187;-77
2021/05/28 07:45:02;;;;;;;13.48;8.38;;;12.80;99.90;;;;;;5024855;28;20057;-76
2021/05/28 07:47:28;;;;;;;14.38;7.63;;;12.80;99.90;;;;;;5029450;28;20057;-78
2021/05/28 07:49:54;;;;;;;18.55;7.13;;;12.80;99.90;;;;;;5038004;28;20022;-77
2021/05/28 07:52:24;;;;;;;9.85;6.45;;;12.70;99.90;;;;;;5028598;28;20133;-76
2021/05/28 07:54:51;;;;;;;14.65;6.35;;;13.10;99.90;;;;;;5000993;28;20046;-74
2021/05/28 07:57:16;;;;;;;8.70;6.20;;;13.40;99.90;;;;;;5013456;28;20018;-73
2021/05/28 07:59:42;;;;;;;11.98;6.50;;;13.50;99.90;;;;;;5006593;28;20110;-74
2021/05/28 08:02:08;;;;;;;10.20;6.72;;;13.70;99.90;;;;;;4998573;28;20137;-75
2021/05/28 08:04:33;;;;;;;12.73;6.90;;;13.70;99.90;;;;;;5002250;28;20492;-75
2021/05/28 08:06:59;;;;;;;9.07;6.00;;;13.80;99.90;;;;;;4996098;28;20034;-77
2021/05/28 08:09:24;;;;;;;13.60;6.72;;;13.90;99.90;;;;;;4997593;28;20019;-77
2021/05/28 08:11:50;;;;;;;8.02;6.07;;;14.20;99.90;;;;;;5003140;28;20042;-76
2021/05/28 08:14:16;;;;;;;10.80;5.90;;;14.30;99.90;;;;;;5004699;28;20034;-76
2021/05/28 08:16:41;;;;;;;10.60;6.13;;;14.10;99.90;;;;;;4998451;28;20633;-76
2021/05/28 08:19:07;;;;;;;11.45;7.20;;;14.30;99.90;;;;;;5004016;28;20266;-75
2021/05/28 08:21:33;;;;;;;12.63;7.55;;;14.10;99.90;;;;;;4997077;28;20062;-75
2021/05/28 08:23:59;;;;;;;9.43;6.32;;;13.80;99.90;;;;;;4998234;28;20030;-77
2021/05/28 08:26:25;;;;;;;9.70;6.55;;;13.60;99.90;;;;;;5006076;28;20033;-76
2021/05/28 08:28:50;;;;;;;13.40;6.53;;;13.50;99.90;;;;;;5006111;28;20026;-76
2021/05/28 08:31:16;;;;;;;9.57;5.97;;;13.70;99.90;;;;;;5005617;28;20018;-75
2021/05/28 08:33:44;;;;;;;11.82;7.28;;;13.70;99.90;;;;;;5003773;28;20022;-76
2021/05/28 08:36:10;;;;;;;9.07;5.57;;;13.40;99.90;;;;;;5009459;28;20404;-75
2021/05/28 08:38:37;;;;;;;7.00;4.00;;;13.70;99.90;;;;;;5024699;28;20014;-75
2021/05/28 08:41:04;;;;;;;9.75;4.43;;;13.90;99.90;;;;;;5023795;28;20029;-76
2021/05/28 08:43:31;;;;;;;10.35;5.70;;;13.90;99.90;;;;;;5031105;28;20030;-76
2021/05/28 08:46:01;;;;;;;5.10;3.83;;;14.00;99.90;;;;;;5032159;28;20022;-77
2021/05/28 08:48:26;;;;;;;8.02;4.00;;;13.70;99.90;;;;;;5012055;28;20046;-77
2021/05/28 08:50:52;;;;;;;6.63;3.22;;;13.90;99.90;;;;;;5009507;28;20041;-76
2021/05/28 08:53:17;;;;;;;7.55;4.15;;;14.30;99.90;;;;;;5014164;28;20053;-75
2021/05/28 08:55:45;;;;;;;7.53;4.72;;;14.60;99.90;;;;;;5019969;28;20045;-74
2021/05/28 08:58:16;;;;;;;7.78;4.57;;;14.70;99.90;;;;;;5026137;28;20074;-75
2021/05/28 09:00:45;;;;;;;7.67;3.60;;;14.40;99.90;;;;;;5029603;28;20019;-74
2021/05/28 09:03:32;;;;;;;7.35;3.55;;;14.20;99.90;;;;;;5015139;28;20033;-74
2021/05/28 09:06:17;;;;;;;6.15;4.28;;;14.60;99.90;;;;;;5029379;28;20029;-76
2021/05/28 09:08:43;;;;;;;7.60;5.30;;;14.90;99.90;;;;;;5025662;28;20021;-74
2021/05/28 09:11:10;;;;;;;9.20;4.40;;;15.10;99.90;;;;;;5023665;28;20018;-74
2021/05/28 09:13:52;;;;;;;13.98;4.80;;;15.10;99.90;;;;;;5033472;28;20030;-75
2021/05/28 09:16:24;;;;;;;6.40;5.55;;;15.30;99.90;;;;;;5032383;28;20111;-76
2021/05/28 09:18:51;;;;;;;7.65;5.68;;;14.70;99.90;;;;;;5045481;28;20022;-76
2021/05/28 09:21:22;;;;;;;9.90;5.00;;;14.60;99.90;;;;;;5027054;28;20014;-75
2021/05/28 09:23:52;;;;;;;6.78;4.18;;;14.90;99.90;;;;;;5030049;28;20030;-75
2021/05/28 09:26:18;;;;;;;6.93;3.95;;;15.00;99.90;;;;;;5021413;28;20420;-76
2021/05/28 09:28:50;;;;;;;5.82;4.13;;;15.30;99.90;;;;;;5010377;28;20720;-77
2021/05/28 09:31:17;;;;;;;;;;;15.10;99.90;;;;;;5008741;28;20550;-73
2021/05/28 09:33:48;;;;;;;7.03;4.18;;;15.30;99.90;;;;;;5003317;28;20663;-75
2021/05/28 09:36:18;;;;;;;7.25;4.25;;;15.40;99.90;;;;;;5021165;28;20038;-74
2021/05/28 09:39:00;;;;;;;6.20;3.97;;;15.20;99.90;;;;;;5000133;28;20094;-76
2021/05/28 09:41:57;;;;;;;6.35;3.05;;;15.10;99.90;;;;;;5011928;28;20022;-75
2021/05/28 09:44:30;;;;;;;4.80;3.00;;;15.20;99.90;;;;;;5019574;28;20029;-77
2021/05/28 09:47:04;;;;;;;4.93;2.67;;;15.10;99.90;;;;;;5025648;28;20049;-75
2021/05/28 09:49:34;;;;;;;5.60;2.78;;;14.90;99.90;;;;;;5008100;28;20029;-72
2021/05/28 09:52:04;;;;;;;5.05;3.45;;;14.90;99.90;;;;;;5030819;28;20026;-75
2021/05/28 09:54:31;;;;;;;5.32;2.88;;;15.10;99.90;;;;;;5016752;28;20319;-75
2021/05/28 09:56:57;;;;;;;5.03;2.97;;;14.80;99.90;;;;;;5016454;28;20044;-77
2021/05/28 09:59:22;;;;;;;7.25;2.75;;;15.10;99.90;;;;;;5005161;28;20291;-75
2021/05/28 10:02:00;;;;;;;4.55;3.33;;;15.40;99.90;;;;;;4999499;28;20030;-73
2021/05/28 10:04:26;;;;;;;6.03;3.78;;;15.80;99.90;;;;;;5004965;28;20023;-75
2021/05/28 10:06:51;;;;;;;8.18;3.92;;;15.30;99.90;;;;;;5014375;28;20030;-74
2021/05/28 10:09:17;;;;;;;8.35;4.63;;;15.20;99.90;;;;;;5003715;28;20072;-76
2021/05/28 10:11:43;;;;;;;5.70;3.42;;;15.60;99.90;;;;;;5003845;28;20022;-77
2021/05/28 10:14:10;;;;;;;4.97;3.63;;;15.70;99.90;;;;;;4998344;28;20464;-75
2021/05/28 10:16:37;;;;;;;4.00;3.28;;;15.40;99.90;;;;;;5009797;28;20042;-76
2021/05/28 10:19:04;;;;;;;7.70;4.18;;;15.40;99.90;;;;;;5003045;28;20022;-75
2021/05/28 10:21:30;;;;;;;6.50;3.58;;;15.60;99.90;;;;;;5002189;28;20427;-75
2021/05/28 10:23:58;;;;;;;5.00;3.15;;;16.00;99.90;;;;;;5003705;28;20033;-74
2021/05/28 10:26:36;;;;;;;5.07;3.40;;;16.30;99.90;;;;;;5004813;28;20345;-76
2021/05/28 10:29:03;;;;;;;4.43;3.15;;;16.60;99.90;;;;;;5010250;28;20257;-72
2021/05/28 10:31:54;;;;;;;6.18;3.80;;;16.90;99.90;;;;;;5008828;28;20026;-75
2021/05/28 10:34:22;;;;;;;6.65;4.13;;;16.70;99.90;;;;;;5007586;28;20026;-76
2021/05/28 10:36:48;;;;;;;6.68;4.80;;;16.30;99.90;;;;;;4993426;28;20037;-75
2021/05/28 10:39:16;;;;;;;8.35;4.70;;;16.20;99.90;;;;;;5005713;28;20022;-76
2021/05/28 10:41:55;;;;;;;8.73;4.18;;;16.20;99.90;;;;;;5009423;28;20023;-76
2021/05/28 10:44:38;;;;;;;10.70;4.68;;;16.60;99.90;;;;;;5014492;28;20021;-74
2021/05/28 10:47:37;;;;;;;6.78;4.85;;;16.30;99.90;;;;;;5014129;28;20029;-75
2021/05/28 10:50:05;;;;;;;4.55;2.63;;;16.40;99.90;;;;;;5016434;28;20024;-74
2021/05/28 10:52:34;;;;;;;2.75;2.15;;;16.70;99.90;;;;;;5015900;28;20022;-72
2021/05/28 10:55:09;;;;;;;3.45;2.63;;;16.80;99.90;;;;;;5014639;28;20026;-74
2021/05/28 10:57:53;;;;;;;6.03;3.70;;;17.10;99.90;;;;;;5001588;28;20057;-74
2021/05/28 11:00:30;;;;;;;4.72;3.28;;;17.00;99.90;;;;;;5015696;28;20078;-75
2021/05/28 11:03:00;;;;;;;6.28;3.50;;;17.10;99.90;;;;;;5021721;28;20022;-77
2021/05/28 11:05:50;;;;;;;4.28;2.78;;;17.20;99.90;;;;;;5020573;28;20030;-76
2021/05/28 11:08:42;;;;;;;5.75;3.05;;;17.00;99.90;;;;;;5022157;28;20045;-78
2021/05/28 11:11:28;;;;;;;8.57;2.80;;;17.10;99.90;;;;;;5011772;28;20022;-74
2021/05/28 11:13:57;;;;;;;3.13;2.58;;;17.30;99.90;;;;;;5001634;28;20034;-74
2021/05/28 11:16:23;;;;;;;4.93;3.10;;;17.40;99.90;;;;;;5005384;28;20045;-76
2021/05/28 11:18:51;;;;;;;4.57;2.00;;;17.50;99.90;;;;;;5017460;28;20022;-75
2021/05/28 11:21:19;;;;;;;3.33;2.72;;;17.30;99.90;;;;;;5017122;28;20038;-77
2021/05/28 11:23:47;;;;;;;6.65;2.40;;;17.20;99.90;;;;;;5014748;28;20030;-76
2021/05/28 11:26:15;;;;;;;2.92;2.33;;;17.40;99.90;;;;;;5024479;28;20017;-74
2021/05/28 11:29:21;;;;;;;6.00;2.13;;;18.00;99.90;;;;;;5024695;28;20037;-76
2021/05/28 11:31:47;;;;;;;6.72;2.40;;;18.00;99.90;;;;;;5005034;28;20133;-75
2021/05/28 11:34:13;;;;;;;4.57;2.78;;;18.00;99.90;;;;;;5008504;28;20038;-76
2021/05/28 11:36:45;;;;;;;7.40;3.50;;;17.70;99.90;;;;;;5015650;28;20017;-75
2021/05/28 11:39:26;;;;;;;5.22;2.47;;;17.80;99.90;;;;;;5018295;28;20033;-74
2021/05/28 11:42:03;;;;;;;3.53;2.67;;;17.60;99.90;;;;;;5005058;28;20014;-77
2021/05/28 11:44:35;;;;;;;6.38;2.53;;;17.60;99.90;;;;;;5020706;28;20064;-78
2021/05/28 11:47:02;;;;;;;3.25;2.47;;;17.60;99.90;;;;;;5004799;28;20053;-78
2021/05/28 11:49:28;;;;;;;3.92;2.10;;;17.50;99.90;;;;;;5020051;28;20026;-75
2021/05/28 11:52:19;;;;;;;3.38;2.22;;;17.50;99.90;;;;;;5022150;28;20026;-77
2021/05/28 11:54:45;;;;;;;4.22;2.42;;;17.80;99.90;;;;;;5028406;28;20057;-76
2021/05/28 11:57:14;;;;;;;3.28;1.70;;;18.00;99.90;;;;;;5017240;28;20373;-75
2021/05/28 11:59:50;;;;;;;3.28;1.77;;;18.00;98.50;;;;;;5017831;28;20073;-76
2021/05/28 12:02:35;;;;;;;2.60;1.80;;;17.90;98.70;;;;;;5009198;28;20032;-77
2021/05/28 12:05:01;;;;;;;3.47;1.70;;;17.90;98.80;;;;;;5008519;28;20036;-76
2021/05/28 12:07:31;;;;;;;2.33;1.80;;;18.20;98.90;;;;;;5003888;28;20042;-77
2021/05/28 12:10:07;;;;;;;2.72;2.25;;;18.50;98.90;;;;;;5003324;28;20054;-76
2021/05/28 12:12:54;;;;;;;6.82;3.58;;;18.50;99.30;;;;;;5013854;28;20030;-75
2021/05/28 12:15:30;;;;;;;3.38;2.78;;;18.40;99.20;;;;;;5006594;28;20045;-74
2021/05/28 12:17:56;;;;;;;3.42;2.90;;;18.30;99.30;;;;;;5003373;28;20065;-75
2021/05/28 12:20:28;;;;;;;2.40;2.20;;;18.00;99.90;;;;;;5014469;28;20022;-76
2021/05/28 12:23:06;;;;;;;4.07;2.92;;;18.10;99.90;;;;;;5000688;28;20026;-75
2021/05/28 12:25:38;;;;;;;2.90;2.60;;;18.50;99.90;;;;;;5012517;28;20077;-74
2021/05/28 12:28:21;;;;;;;2.90;2.45;;;18.40;99.40;;;;;;5006800;28;20021;-75
2021/05/28 12:30:52;;;;;;;5.88;1.95;;;18.30;99.80;;;;;;5007888;28;20026;-77
2021/05/28 12:33:23;;;;;;;2.80;2.47;;;18.60;99.50;;;;;;5013747;28;20541;-73
2021/05/28 12:35:51;;;;;;;2.35;1.80;;;18.60;97.50;;;;;;5024791;28;20010;-78
2021/05/28 12:38:18;;;;;;;1.75;1.52;;;18.70;98.40;;;;;;5034386;28;20020;-78
2021/05/28 12:40:47;;;;;;;2.97;1.40;;;18.90;97.80;;;;;;5026890;28;20014;-76
2021/05/28 12:43:22;;;;;;;2.55;1.80;;;19.30;94.60;;;;;;5033877;28;20046;-77
2021/05/28 12:45:51;;;;;;;3.85;2.30;;;19.20;95.40;;;;;;5031977;28;20094;-76